• Join FlightAware (Why Join?)
  • Login
  • US Flag 
12:35PM EDT


 

Airport Tracker/Info


-or-


 

Live Flight TrackerFlight Track Log ✈ N102WY ✈ 03-Mar-2014 ✈ KCYS - KPNA

Flight Track Log - Related Links

Times and Time Zones

All times are in EST time to prevent confusion due to time zone crossing. See the N102WY flight status page for this flight to view local times or setup timezone preferences in your user account.

Time Position Orientation Groundspeed Altitude Reporting Facility
EST Latitude Longitude Course Direction KTS MPH feet Rate Location/Type
12:41PM 41.1719 -104.8814 293° West 226 260 9,400  Level Denver Center
12:42PM 41.2003 -104.9544 297° West 231 266 12,200 2,700 Climbing Denver Center
12:43PM 41.2283 -105.0314 296° West 235 270 15,100 3,000 Climbing Denver Center
12:44PM 41.2658 -105.1383 295° West 268 308 18,500 3,060 Climbing Denver Center
12:45PM 41.3011 -105.2392 295° West 300 345 21,500 3,060 Climbing Denver Center
12:46PM 41.4029 -105.5392 293° West  Level FlightAware Approximate
12:46PM 41.3425 -105.3553 295° West 308 354 24,900  Level Denver Center
12:47PM 41.3767 -105.4506 296° West 303 349 27,800 3,000 Climbing Denver Center
12:48PM 41.4131 -105.5558 295° West 287 330 31,200 2,220 Climbing Denver Center
12:49PM 41.4436 -105.6453 295° West 279 321 32,500 1,320 Climbing Denver Center
12:50PM 41.4839 -105.7600 295° West 296 341 34,000 720 Climbing Denver Center
12:51PM 41.5206 -105.8636 295° West 312 359 34,000  Level Denver Center
12:52PM 41.5639 -105.9878 295° West 323 372 34,000  Level Denver Center
12:53PM 41.6000 -106.0933 295° West 323 372 34,000  Level Denver Center
12:54PM 41.6419 -106.2139 295° West 323 372 34,000  Level Denver Center
12:55PM 41.6772 -106.3169 295° West 320 368 34,000  Level Denver Center
12:56PM 41.7167 -106.4306 295° West 306 352 34,000  Level Denver Center
12:57PM 41.7481 -106.5267 294° West 295 339 34,000  Level Denver Center
12:58PM 41.7814 -106.6208 295° West 294 338 34,000  Level Denver Center
12:59PM 41.8181 -106.7303 294° West 291 335 34,000  Level Denver Center
01:00PM 41.8489 -106.8222 294° West 282 325 34,000  Level Denver Center
01:01PM 41.8750 -106.8994 294° West 283 326 34,000  Level Denver Center
01:02PM 41.9153 -107.0239 294° West 284 327 34,000  Level Denver Center
01:03PM 41.9531 -107.1358 294° West 291 335 34,000  Level Denver Center
01:04PM 41.9850 -107.2317 294° West 295 339 34,000  Level Denver Center
01:06PM 42.0228 -107.3447 294° West 295 339 34,000  Level Denver Center
01:07PM 42.0542 -107.4386 294° West 294 338 34,000  Level Denver Center
01:08PM 42.0886 -107.5500 293° West 293 337 34,000  Level Denver Center
01:08PM 42.1136 -107.6275 294° West 290 334 34,000  Level Salt Lake Center
01:09PM 42.1506 -107.7392 294° West 291 335 34,000 -660 Level Salt Lake Center
01:10PM 42.1817 -107.8356 294° West 293 337 32,700 -1,560 Descending Salt Lake Center
01:12PM 42.2133 -107.9375 293° West 301 346 30,800 -1,980 Descending Salt Lake Center
01:13PM 42.2525 -108.0567 294° West 309 356 28,700 -1,980 Descending Salt Lake Center
01:14PM 42.2839 -108.1519 294° West 293 337 26,800 -1,800 Descending Salt Lake Center
01:15PM 42.3164 -108.2564 293° West 277 319 25,100 -1,500 Descending Salt Lake Center
01:16PM 42.3461 -108.3489 294° West 278 320 23,800 -1,320 Descending Salt Lake Center
01:17PM 42.3825 -108.4631 293° West 289 333 22,400 -1,260 Descending Salt Lake Center
01:18PM 42.4131 -108.5589 293° West 293 337 21,200 -1,260 Descending Salt Lake Center
01:19PM 42.4461 -108.6686 292° West 285 328 19,800 -1,260 Descending Salt Lake Center
01:20PM 42.4761 -108.7633 293° West 286 329 18,700 -1,080 Descending Salt Lake Center
01:21PM 42.5056 -108.8569 293° West 284 327 17,600 -1,140 Descending Salt Lake Center
01:22PM 42.5381 -108.9650 292° West 281 323 16,400 -840 Descending Salt Lake Center
01:23PM 42.5656 -109.0544 293° West 274 315 15,900 -240 Descending Salt Lake Center
01:24PM 42.5969 -109.1544 293° West 265 305 16,000  Climbing Salt Lake Center
01:25PM 42.6236 -109.2411 293° West 261 300 16,000  Level Salt Lake Center